createdAt,value
2023-04-14T00:02:15.593Z,8.59
2023-04-14T00:05:22.322Z,8.65
2023-04-14T00:08:29.092Z,8.72
2023-04-14T00:11:36.696Z,8.87
2023-04-14T00:14:43.719Z,8.51
2023-04-14T00:17:51.110Z,8.33
2023-04-14T00:20:57.252Z,8.28
2023-04-14T00:24:03.335Z,8.60
2023-04-14T00:27:11.260Z,8.58
2023-04-14T00:30:17.327Z,8.66
2023-04-14T00:33:23.612Z,8.74
2023-04-14T00:36:29.673Z,8.51
2023-04-14T00:39:35.832Z,8.44
2023-04-14T00:42:47.148Z,8.38
2023-04-14T00:45:53.722Z,8.53
2023-04-14T00:48:59.856Z,8.38
2023-04-14T00:52:07.549Z,8.14
2023-04-14T00:55:13.846Z,8.36
2023-04-14T00:58:21.687Z,8.24
2023-04-14T01:01:29.316Z,8.19
2023-04-14T01:04:52.209Z,8.34
2023-04-14T01:08:00.167Z,8.28
2023-04-14T01:11:16.136Z,7.16
2023-04-14T01:14:37.642Z,6.72
2023-04-14T01:17:51.215Z,7.68
2023-04-14T01:21:03.914Z,7.33
2023-04-14T01:24:51.727Z,7.70
2023-04-14T01:28:12.004Z,7.99
2023-04-14T01:31:26.986Z,8.00
2023-04-14T01:34:37.902Z,7.91
2023-04-14T01:37:48.870Z,8.08
2023-04-14T01:40:59.184Z,8.00
2023-04-14T01:44:07.912Z,7.64
2023-04-14T01:47:19.151Z,8.06
2023-04-14T01:50:26.586Z,7.41
2023-04-14T01:53:34.274Z,7.77
2023-04-14T01:56:42.290Z,7.43
2023-04-14T01:59:49.964Z,7.69
2023-04-14T02:02:58.537Z,7.80
2023-04-14T02:06:06.406Z,7.64
2023-04-14T02:09:13.995Z,6.91
2023-04-14T02:12:22.429Z,7.07
2023-04-14T02:15:29.333Z,6.80
2023-04-14T02:18:38.968Z,7.25
2023-04-14T02:21:46.482Z,7.46
2023-04-14T02:24:55.344Z,7.15
2023-04-14T02:28:05.154Z,7.15
2023-04-14T02:31:16.797Z,7.09
2023-04-14T02:34:29.676Z,7.31
2023-04-14T02:37:45.252Z,7.13
2023-04-14T02:40:52.433Z,7.76
2023-04-14T02:44:05.864Z,7.41
2023-04-14T02:47:15.016Z,7.34
2023-04-14T02:50:24.642Z,6.94
2023-04-14T02:53:31.391Z,7.27
2023-04-14T02:56:37.780Z,7.34
2023-04-14T02:59:47.122Z,7.08
2023-04-14T03:02:54.611Z,7.06
2023-04-14T03:06:02.386Z,7.52
2023-04-14T03:09:08.973Z,6.98
2023-04-14T03:12:16.119Z,7.64
2023-04-14T03:15:23.980Z,7.38
2023-04-14T03:18:32.254Z,7.53
2023-04-14T03:21:40.731Z,7.31
2023-04-14T03:24:47.454Z,7.38
2023-04-14T03:27:55.729Z,7.88
2023-04-14T03:31:06.512Z,6.94
2023-04-14T03:34:15.514Z,7.30
2023-04-14T03:37:27.510Z,6.68
2023-04-14T03:40:38.562Z,6.87
2023-04-14T03:43:46.807Z,7.29
2023-04-14T03:46:54.664Z,6.84
2023-04-14T03:50:04.536Z,7.51
2023-04-14T03:53:14.466Z,7.80
2023-04-14T03:56:21.372Z,7.58
2023-04-14T03:59:29.648Z,7.79
2023-04-14T04:02:37.413Z,7.82
2023-04-14T04:05:45.328Z,7.80
2023-04-14T04:08:55.640Z,7.98
2023-04-14T04:12:04.636Z,7.08
2023-04-14T04:15:11.521Z,6.72
2023-04-14T04:18:19.577Z,7.31
2023-04-14T04:21:30.083Z,7.55
2023-04-14T04:24:40.477Z,7.90
2023-04-14T04:27:47.722Z,7.86
2023-04-14T04:30:56.182Z,7.03
2023-04-14T04:34:04.319Z,7.39
2023-04-14T04:37:12.079Z,8.21
2023-04-14T04:40:19.925Z,8.14
2023-04-14T04:43:26.185Z,8.07
2023-04-14T04:46:49.902Z,8.07
2023-04-14T04:49:56.600Z,8.24
2023-04-14T04:53:02.931Z,8.16
2023-04-14T04:56:10.666Z,8.55
2023-04-14T04:59:17.093Z,9.10
2023-04-14T05:02:23.467Z,8.86
2023-04-14T05:05:29.757Z,9.14
2023-04-14T05:08:35.991Z,8.93
2023-04-14T05:11:43.552Z,9.27
2023-04-14T05:14:49.624Z,9.02
2023-04-14T05:17:55.853Z,9.26
2023-04-14T05:21:05.574Z,9.18
2023-04-14T05:24:11.675Z,9.42
2023-04-14T05:27:19.097Z,9.23
2023-04-14T05:30:26.619Z,9.04
2023-04-14T05:33:32.641Z,9.76
2023-04-14T05:36:38.690Z,10.04
2023-04-14T05:39:45.060Z,10.65
2023-04-14T05:43:11.634Z,10.42
2023-04-14T05:46:17.999Z,11.38
2023-04-14T05:49:24.637Z,11.87
2023-04-14T05:52:31.017Z,11.82
2023-04-14T05:55:37.234Z,12.29
2023-04-14T05:58:44.737Z,12.52
2023-04-14T06:01:51.709Z,12.36
2023-04-14T06:04:59.860Z,11.98
2023-04-14T06:08:06.280Z,12.12
2023-04-14T06:11:13.588Z,12.19
2023-04-14T06:14:21.182Z,11.76
2023-04-14T06:17:28.240Z,11.91
2023-04-14T06:20:36.297Z,12.26
2023-04-14T06:23:42.476Z,11.31
2023-04-14T06:26:49.165Z,11.40
2023-04-14T06:30:00.258Z,11.22
2023-04-14T06:33:06.387Z,11.26
2023-04-14T06:36:13.940Z,10.86
2023-04-14T06:39:21.235Z,10.77
2023-04-14T06:42:27.526Z,10.85
2023-04-14T06:45:35.242Z,10.87
2023-04-14T06:48:41.711Z,10.88
2023-04-14T06:51:48.041Z,10.97
2023-04-14T06:54:54.344Z,11.24
2023-04-14T06:58:00.431Z,11.75
2023-04-14T07:01:08.032Z,12.27
2023-04-14T07:04:15.624Z,12.50
2023-04-14T07:07:21.819Z,12.73
2023-04-14T07:10:27.991Z,12.81
2023-04-14T07:13:34.578Z,12.56
2023-04-14T07:16:41.975Z,13.43
2023-04-14T07:19:48.461Z,13.52
2023-04-14T07:22:54.438Z,14.38
2023-04-14T07:26:01.619Z,14.81
2023-04-14T07:29:07.943Z,15.19
2023-04-14T07:32:16.091Z,15.14
2023-04-14T07:35:22.516Z,16.01
2023-04-14T07:38:28.750Z,16.59
2023-04-14T07:41:34.931Z,16.34
2023-04-14T07:44:41.351Z,15.63
2023-04-14T07:47:49.357Z,16.64
2023-04-14T07:50:55.925Z,17.67
2023-04-14T07:54:02.711Z,17.81
2023-04-14T07:57:10.988Z,16.95
2023-04-14T08:00:17.831Z,16.50
2023-04-14T08:03:25.674Z,17.55
2023-04-14T08:06:32.147Z,17.16
2023-04-14T08:09:38.265Z,17.23
2023-04-14T08:12:44.487Z,17.59
2023-04-14T08:15:50.822Z,16.50
2023-04-14T08:18:58.390Z,16.36
2023-04-14T08:22:04.430Z,16.86
2023-04-14T08:25:12.216Z,16.39
2023-04-14T08:28:18.613Z,15.87
2023-04-14T08:31:25.843Z,15.59
2023-04-14T08:34:33.821Z,15.80
2023-04-14T08:37:40.314Z,16.05
2023-04-14T08:40:49.014Z,15.77
2023-04-14T08:43:55.393Z,16.12
2023-04-14T08:47:02.002Z,15.96
2023-04-14T08:50:16.869Z,15.49
2023-04-14T08:53:27.520Z,15.39
2023-04-14T08:56:38.300Z,15.42
2023-04-14T08:59:45.709Z,15.58
2023-04-14T09:02:52.876Z,15.90
2023-04-14T09:06:01.715Z,16.32
2023-04-14T09:09:08.153Z,15.88
2023-04-14T09:12:17.310Z,16.15
2023-04-14T09:15:25.560Z,15.98
2023-04-14T09:18:34.873Z,15.93
2023-04-14T09:21:52.525Z,15.79
2023-04-14T09:25:01.113Z,15.98
2023-04-14T09:28:07.858Z,15.62
2023-04-14T09:31:14.686Z,15.61
2023-04-14T09:34:22.264Z,15.91
2023-04-14T09:37:43.704Z,15.64
2023-04-14T09:40:50.115Z,15.55
2023-04-14T09:43:56.474Z,15.47
2023-04-14T09:47:05.224Z,15.57
2023-04-14T09:50:12.276Z,15.58
2023-04-14T09:53:27.190Z,16.39
2023-04-14T09:56:33.344Z,16.42
2023-04-14T09:59:40.718Z,16.30
2023-04-14T10:02:51.530Z,17.80
2023-04-14T10:05:57.639Z,18.26
2023-04-14T10:09:06.090Z,18.12
2023-04-14T10:12:13.540Z,17.58
2023-04-14T10:15:19.639Z,18.57
2023-04-14T10:18:25.716Z,18.86
2023-04-14T10:21:32.035Z,19.65
2023-04-14T10:24:41.844Z,20.17
2023-04-14T10:27:49.721Z,20.39
2023-04-14T10:30:57.566Z,19.57
2023-04-14T10:34:09.122Z,19.74
2023-04-14T10:37:16.470Z,20.27
2023-04-14T10:40:24.402Z,21.04
2023-04-14T10:43:30.772Z,20.87
2023-04-14T10:46:44.927Z,22.20
2023-04-14T10:49:51.074Z,22.01
2023-04-14T10:52:59.020Z,22.49
2023-04-14T10:56:07.480Z,21.42
2023-04-14T10:59:13.979Z,22.04
2023-04-14T11:02:25.035Z,23.33
2023-04-14T11:05:33.383Z,23.23
2023-04-14T11:08:39.760Z,23.23
2023-04-14T11:11:49.547Z,23.05
2023-04-14T11:15:03.895Z,22.02
2023-04-14T11:18:13.823Z,22.13
2023-04-14T11:21:20.509Z,22.74
2023-04-14T11:24:27.632Z,23.34
2023-04-14T11:27:36.276Z,21.66
2023-04-14T11:30:44.256Z,22.70
2023-04-14T11:33:51.070Z,22.74
2023-04-14T11:36:58.039Z,22.92
2023-04-14T11:40:05.666Z,22.42
2023-04-14T11:43:13.312Z,22.12
2023-04-14T11:46:22.245Z,22.84
2023-04-14T11:49:36.723Z,22.33
2023-04-14T11:52:46.252Z,22.88
2023-04-14T11:55:54.085Z,22.56
2023-04-14T11:59:03.239Z,23.37
2023-04-14T12:02:17.540Z,23.42
2023-04-14T12:05:30.512Z,23.83
2023-04-14T12:08:37.092Z,22.82
2023-04-14T12:11:43.412Z,22.70
2023-04-14T12:14:51.554Z,21.42
2023-04-14T12:17:58.517Z,22.15
2023-04-14T12:21:08.796Z,23.31
2023-04-14T12:24:17.294Z,22.92
2023-04-14T12:27:24.760Z,21.55
2023-04-14T12:30:32.536Z,19.93
2023-04-14T12:33:39.100Z,18.30
2023-04-14T12:36:52.213Z,16.34
2023-04-14T12:40:01.079Z,15.91
2023-04-14T12:43:08.383Z,15.06
2023-04-14T12:46:26.016Z,15.46
2023-04-14T12:49:39.939Z,14.62
2023-04-14T12:52:46.446Z,13.76
2023-04-14T12:56:07.210Z,13.41
2023-04-14T12:59:14.877Z,12.45
2023-04-14T13:02:23.386Z,12.01
2023-04-14T13:05:30.121Z,12.46
2023-04-14T13:08:36.549Z,11.65
2023-04-14T13:11:44.384Z,13.27
2023-04-14T13:14:50.869Z,12.96
2023-04-14T13:17:58.623Z,12.34
2023-04-14T13:21:05.366Z,11.31
2023-04-14T13:24:11.748Z,11.14
2023-04-14T13:27:18.339Z,10.99
2023-04-14T13:30:24.557Z,10.59
2023-04-14T13:33:32.205Z,10.55
2023-04-14T13:36:38.801Z,10.22
2023-04-14T13:39:45.093Z,10.29
2023-04-14T13:42:51.185Z,9.74
2023-04-14T13:45:59.250Z,9.83
2023-04-14T13:49:07.192Z,9.66
2023-04-14T13:52:13.601Z,9.50
2023-04-14T13:55:20.451Z,9.45
2023-04-14T13:58:27.029Z,9.38
2023-04-14T14:01:33.514Z,9.43
2023-04-14T14:04:41.359Z,8.69
2023-04-14T14:07:47.619Z,8.25
2023-04-14T14:10:54.601Z,8.82
2023-04-14T14:14:01.740Z,9.10
2023-04-14T14:17:08.472Z,8.80
2023-04-14T14:20:16.389Z,9.26
2023-04-14T14:23:22.822Z,8.85
2023-04-14T14:26:29.265Z,8.64
2023-04-14T14:29:36.001Z,8.81
2023-04-14T14:32:42.503Z,8.43
2023-04-14T14:35:51.116Z,9.16
2023-04-14T14:38:57.956Z,9.36
2023-04-14T14:42:04.704Z,9.15
2023-04-14T14:45:12.098Z,9.35
2023-04-14T14:48:18.375Z,9.66
2023-04-14T14:51:27.836Z,9.68
2023-04-14T14:54:34.385Z,10.20
2023-04-14T14:57:41.266Z,10.02
2023-04-14T15:00:48.095Z,10.15
2023-04-14T15:03:55.893Z,10.19
2023-04-14T15:07:03.742Z,10.42
2023-04-14T15:10:10.785Z,10.19
2023-04-14T15:13:17.379Z,10.14
2023-04-14T15:16:23.521Z,10.29
2023-04-14T15:19:29.840Z,10.40
2023-04-14T15:22:37.889Z,10.37
2023-04-14T15:25:44.181Z,10.25
2023-04-14T15:28:50.438Z,10.32
2023-04-14T15:31:56.642Z,10.43
2023-04-14T15:35:02.973Z,10.30
2023-04-14T15:38:10.619Z,10.16
2023-04-14T15:41:17.211Z,10.63
2023-04-14T15:44:24.186Z,10.50
2023-04-14T15:47:31.816Z,10.23
2023-04-14T15:50:44.595Z,10.44
2023-04-14T15:53:52.992Z,10.55
2023-04-14T15:56:59.112Z,10.34
2023-04-14T16:00:07.759Z,10.66
2023-04-14T16:03:14.959Z,10.59
2023-04-14T16:06:21.579Z,10.63
2023-04-14T16:09:29.372Z,10.70
2023-04-14T16:12:36.756Z,10.57
2023-04-14T16:15:42.889Z,10.44
2023-04-14T16:18:49.400Z,10.40
2023-04-14T16:21:58.626Z,10.62
2023-04-14T16:25:07.506Z,10.57
2023-04-14T16:28:13.580Z,10.88
2023-04-14T16:31:19.734Z,10.75
2023-04-14T16:34:25.998Z,10.57
2023-04-14T16:37:32.600Z,10.98
2023-04-14T16:40:41.470Z,10.55
2023-04-14T16:43:47.837Z,10.59
2023-04-14T16:46:54.158Z,10.80
2023-04-14T16:50:00.631Z,10.65
2023-04-14T16:53:06.849Z,10.67
2023-04-14T16:56:14.417Z,10.46
2023-04-14T16:59:20.658Z,10.54
2023-04-14T17:02:27.245Z,10.54
2023-04-14T17:05:33.837Z,10.48
2023-04-14T17:08:40.554Z,10.56
2023-04-14T17:11:48.882Z,10.56
2023-04-14T17:14:55.149Z,10.38
2023-04-14T17:18:01.565Z,10.18
2023-04-14T17:21:08.010Z,10.11
2023-04-14T17:24:14.803Z,10.13
2023-04-14T17:27:23.115Z,9.96
2023-04-14T17:30:30.125Z,10.05
2023-04-14T17:33:36.483Z,9.99
2023-04-14T17:36:43.086Z,10.36
2023-04-14T17:39:50.167Z,10.22
2023-04-14T17:42:58.689Z,9.99
2023-04-14T17:46:05.694Z,10.08
2023-04-14T17:49:11.778Z,9.91
2023-04-14T17:52:18.226Z,9.82
2023-04-14T17:55:24.395Z,9.75
2023-04-14T17:58:32.756Z,10.03
2023-04-14T18:01:39.023Z,10.21
2023-04-14T18:04:45.697Z,9.82
2023-04-14T18:07:52.157Z,9.70
2023-04-14T18:11:00.024Z,9.97
2023-04-14T18:14:08.702Z,10.00
2023-04-14T18:17:15.426Z,10.26
2023-04-14T18:20:25.793Z,10.04
2023-04-14T18:23:32.190Z,10.03
2023-04-14T18:26:38.640Z,10.07
2023-04-14T18:29:46.551Z,10.00
2023-04-14T18:32:53.864Z,10.03
2023-04-14T18:36:00.765Z,9.75
2023-04-14T18:39:07.960Z,9.84
2023-04-14T18:42:15.522Z,9.84
2023-04-14T18:45:23.499Z,9.92
2023-04-14T18:48:30.243Z,9.84
2023-04-14T18:51:36.393Z,10.01
2023-04-14T18:54:42.968Z,9.85
2023-04-14T18:57:49.616Z,9.90
2023-04-14T19:00:57.781Z,9.74
2023-04-14T19:04:04.152Z,9.63
2023-04-14T19:07:10.438Z,9.80
2023-04-14T19:10:16.478Z,9.71
2023-04-14T19:13:22.460Z,9.71
2023-04-14T19:16:30.116Z,9.47
2023-04-14T19:19:36.583Z,9.58
2023-04-14T19:22:42.552Z,9.47
2023-04-14T19:25:48.867Z,9.47
2023-04-14T19:28:58.671Z,9.56
2023-04-14T19:32:06.719Z,9.31
2023-04-14T19:35:13.245Z,9.50
2023-04-14T19:38:20.394Z,9.54
2023-04-14T19:41:26.400Z,9.25
2023-04-14T19:44:34.449Z,8.33
2023-04-14T19:47:42.488Z,8.25
2023-04-14T19:50:53.270Z,8.90
2023-04-14T19:54:01.151Z,9.10
2023-04-14T19:57:08.632Z,8.99
2023-04-14T20:00:16.882Z,9.14
2023-04-14T20:03:25.446Z,8.92
2023-04-14T20:06:32.945Z,8.98
2023-04-14T20:09:44.894Z,8.97
2023-04-14T20:12:51.875Z,8.84
2023-04-14T20:15:58.664Z,8.71
2023-04-14T20:19:06.551Z,8.59
2023-04-14T20:22:13.542Z,8.73
2023-04-14T20:25:19.890Z,8.95
2023-04-14T20:28:26.735Z,8.89
2023-04-14T20:31:33.298Z,8.86
2023-04-14T20:34:40.907Z,8.58
2023-04-14T20:37:47.669Z,8.68
2023-04-14T20:40:55.304Z,8.71
2023-04-14T20:44:01.915Z,8.67
2023-04-14T20:47:08.466Z,8.55
2023-04-14T20:50:16.821Z,8.75
2023-04-14T20:53:26.693Z,8.65
2023-04-14T20:56:34.219Z,8.72
2023-04-14T20:59:40.753Z,8.77
2023-04-14T21:02:48.887Z,8.48
2023-04-14T21:05:56.761Z,8.44
2023-04-14T21:09:03.445Z,8.28
2023-04-14T21:12:14.301Z,7.93
2023-04-14T21:15:48.361Z,7.58
2023-04-14T21:18:49.337Z,8.22
2023-04-14T21:21:56.661Z,7.53
2023-04-14T21:25:03.073Z,7.39
2023-04-14T21:28:09.347Z,7.92
2023-04-14T21:31:15.964Z,8.12
2023-04-14T21:34:22.481Z,7.81
2023-04-14T21:37:30.473Z,7.52
2023-04-14T21:40:37.001Z,7.58
2023-04-14T21:43:43.209Z,8.02
2023-04-14T21:57:48.574Z,7.41
2023-04-14T22:00:48.287Z,7.70
2023-04-14T22:03:56.038Z,7.42
2023-04-14T22:07:03.586Z,7.48
2023-04-14T22:10:10.541Z,7.58
2023-04-14T22:13:18.212Z,7.14
2023-04-14T22:16:25.593Z,7.70
2023-04-14T22:19:32.018Z,7.15
2023-04-14T22:22:38.405Z,7.06
2023-04-14T22:25:44.869Z,7.36
2023-04-14T22:28:52.887Z,7.14
2023-04-14T22:31:58.856Z,7.17
2023-04-14T22:35:05.411Z,7.44
2023-04-14T22:38:12.219Z,7.35
2023-04-14T22:41:19.778Z,7.66
2023-04-14T22:44:27.528Z,6.94
2023-04-14T22:47:34.155Z,6.97
2023-04-14T22:50:40.573Z,7.20
2023-04-14T22:53:47.004Z,7.87
2023-04-14T22:56:53.849Z,7.19
2023-04-14T23:00:09.094Z,7.00
2023-04-14T23:03:15.756Z,7.71
2023-04-14T23:06:23.010Z,7.43
2023-04-14T23:09:30.668Z,7.11
2023-04-14T23:12:37.513Z,7.35
2023-04-14T23:15:45.481Z,7.79
2023-04-14T23:18:53.120Z,7.10
2023-04-14T23:21:59.019Z,7.01
2023-04-14T23:25:05.288Z,7.58
2023-04-14T23:28:12.485Z,7.86
2023-04-14T23:31:19.927Z,7.71
2023-04-14T23:34:26.234Z,7.94
2023-04-14T23:37:32.444Z,8.01
2023-04-14T23:40:38.686Z,8.05
2023-04-14T23:43:46.246Z,8.13
2023-04-14T23:46:54.011Z,8.15
2023-04-14T23:50:00.664Z,7.93
2023-04-14T23:53:06.930Z,7.82
2023-04-14T23:56:13.220Z,7.33
2023-04-14T23:59:19.372Z,7.56
